createdAt,value
2022-09-01T00:02:02.817Z,99743.91
2022-09-01T00:04:29.501Z,99750.16
2022-09-01T00:06:56.421Z,99752.22
2022-09-01T00:09:23.693Z,99740.03
2022-09-01T00:11:54.438Z,99734.31
2022-09-01T00:14:30.099Z,99750.22
2022-09-01T00:17:03.204Z,99744.09
2022-09-01T00:19:30.288Z,99735.25
2022-09-01T00:21:57.533Z,99745.50
2022-09-01T00:24:26.402Z,99741.31
2022-09-01T00:26:54.940Z,99742.78
2022-09-01T00:29:22.646Z,99748.00
2022-09-01T00:31:50.593Z,99737.97
2022-09-01T00:34:17.634Z,99725.13
2022-09-01T00:36:44.707Z,99741.72
2022-09-01T00:39:12.323Z,99727.41
2022-09-01T00:41:42.767Z,99717.22
2022-09-01T00:44:13.702Z,99718.31
2022-09-01T00:46:55.099Z,99702.47
2022-09-01T00:49:45.056Z,99710.38
2022-09-01T00:52:33.921Z,99673.69
2022-09-01T00:55:07.732Z,99681.38
2022-09-01T00:57:34.507Z,99627.78
2022-09-01T01:00:11.710Z,99645.69
2022-09-01T01:02:41.369Z,99654.50
2022-09-01T01:05:14.409Z,99615.63
2022-09-01T01:07:47.662Z,99614.72
2022-09-01T01:10:17.066Z,99614.50
2022-09-01T01:12:44.888Z,99649.78
2022-09-01T01:15:13.349Z,99646.69
2022-09-01T01:17:40.656Z,99641.69
2022-09-01T01:20:27.979Z,99609.94
2022-09-01T01:23:15.915Z,99595.16
2022-09-01T01:25:46.484Z,99625.13
2022-09-01T01:28:15.780Z,99569.63
2022-09-01T01:30:52.508Z,99540.72
2022-09-01T01:33:34.619Z,99556.09
2022-09-01T01:36:01.895Z,99534.94
2022-09-01T01:38:30.169Z,99530.22
2022-09-01T01:40:57.415Z,99515.63
2022-09-01T01:43:26.830Z,99515.47
2022-09-01T01:45:59.239Z,99497.97
2022-09-01T01:48:26.447Z,99479.69
2022-09-01T01:50:55.037Z,99482.38
2022-09-01T01:53:22.552Z,99504.31
2022-09-01T01:55:49.696Z,99529.28
2022-09-01T01:58:21.132Z,99536.53
2022-09-01T02:00:49.739Z,99508.97
2022-09-01T02:03:20.272Z,99491.56
2022-09-01T02:05:49.271Z,99490.69
2022-09-01T02:08:22.680Z,99536.22
2022-09-01T02:10:51.858Z,99535.56
2022-09-01T02:13:21.085Z,99545.03
2022-09-01T02:15:53.958Z,99552.56
2022-09-01T02:18:27.151Z,99601.22
2022-09-01T02:20:55.365Z,99571.38
2022-09-01T02:23:25.858Z,99502.00
2022-09-01T02:28:45.383Z,99580.50
2022-09-01T02:31:12.498Z,99532.09
2022-09-01T02:33:44.122Z,99551.75
2022-09-01T02:36:15.314Z,99549.56
2022-09-01T02:38:45.935Z,99565.81
2022-09-01T02:41:14.517Z,99552.25
2022-09-01T02:43:43.514Z,99539.19
2022-09-01T02:46:10.409Z,99549.50
2022-09-01T02:48:39.723Z,99584.44
2022-09-01T02:51:10.863Z,99594.59
2022-09-01T02:53:39.467Z,99555.00
2022-09-01T02:56:12.077Z,99586.06
2022-09-01T02:58:46.404Z,99598.47
2022-09-01T03:01:22.093Z,99604.63
2022-09-01T03:03:49.677Z,99598.88
2022-09-01T03:06:18.476Z,99561.69
2022-09-01T03:08:45.186Z,99562.19
2022-09-01T03:11:13.261Z,99564.94
2022-09-01T03:13:41.923Z,99559.03
2022-09-01T03:16:09.795Z,99569.50
2022-09-01T03:18:37.324Z,99596.00
2022-09-01T03:21:06.191Z,99633.00
2022-09-01T03:23:34.050Z,99623.00
2022-09-01T03:26:02.300Z,99614.41
2022-09-01T03:28:29.867Z,99609.22
2022-09-01T03:30:58.139Z,99592.50
2022-09-01T03:33:26.830Z,99590.94
2022-09-01T03:35:54.270Z,99634.16
2022-09-01T03:38:24.165Z,99614.56
2022-09-01T03:41:02.054Z,99637.78
2022-09-01T03:43:35.635Z,99614.44
2022-09-01T03:46:03.440Z,99622.28
2022-09-01T03:48:34.700Z,99610.25
2022-09-01T03:51:04.558Z,99642.72
2022-09-01T03:53:35.894Z,99604.47
2022-09-01T03:56:05.794Z,99601.31
2022-09-01T03:58:33.209Z,99648.78
2022-09-01T04:01:03.247Z,99634.22
2022-09-01T04:03:34.590Z,99653.22
2022-09-01T04:06:04.789Z,99664.22
2022-09-01T04:08:32.927Z,99647.31
2022-09-01T04:11:24.194Z,99666.00
2022-09-01T04:13:51.368Z,99654.13
2022-09-01T04:16:40.123Z,99612.03
2022-09-01T04:19:16.044Z,99613.16
2022-09-01T04:22:03.302Z,99612.59
2022-09-01T04:24:32.670Z,99610.72
2022-09-01T04:27:02.414Z,99615.25
2022-09-01T04:29:31.859Z,99623.81
2022-09-01T04:32:05.584Z,99616.38
2022-09-01T04:34:39.868Z,99610.41
2022-09-01T04:37:09.371Z,99611.44
2022-09-01T04:39:37.187Z,99582.81
2022-09-01T04:42:09.485Z,99603.38
2022-09-01T04:44:37.275Z,99612.22
2022-09-01T04:47:03.951Z,99619.22
2022-09-01T04:49:33.772Z,99588.22
2022-09-01T04:52:00.946Z,99573.50
2022-09-01T04:54:27.605Z,99590.69
2022-09-01T04:56:55.048Z,99586.00
2022-09-01T04:59:24.383Z,99569.38
2022-09-01T05:01:54.365Z,99568.56
2022-09-01T05:04:27.709Z,99545.56
2022-09-01T05:07:01.138Z,99532.28
2022-09-01T05:09:35.511Z,99566.50
2022-09-01T05:12:12.869Z,99601.03
2022-09-01T05:14:47.342Z,99578.59
2022-09-01T05:17:14.590Z,99564.25
2022-09-01T05:19:45.064Z,99539.16
2022-09-01T05:22:13.218Z,99526.06
2022-09-01T05:24:42.094Z,99541.50
2022-09-01T05:27:12.293Z,99559.41
2022-09-01T05:29:41.582Z,99572.31
2022-09-01T05:32:12.616Z,99600.16
2022-09-01T05:34:42.414Z,99584.59
2022-09-01T05:37:09.293Z,99571.78
2022-09-01T05:39:38.016Z,99549.03
2022-09-01T05:42:09.102Z,99570.50
2022-09-01T05:44:36.504Z,99564.66
2022-09-01T05:47:03.567Z,99587.13
2022-09-01T05:49:32.181Z,99562.09
2022-09-01T05:51:59.056Z,99565.47
2022-09-01T05:54:28.016Z,99561.03
2022-09-01T05:57:08.166Z,99581.91
2022-09-01T05:59:45.996Z,99557.00
2022-09-01T06:02:12.716Z,99593.75
2022-09-01T06:04:44.215Z,99608.22
2022-09-01T06:07:16.649Z,99595.94
2022-09-01T06:09:48.690Z,99573.31
2022-09-01T06:12:23.422Z,99549.94
2022-09-01T06:14:53.166Z,99573.72
2022-09-01T06:17:24.703Z,99588.84
2022-09-01T06:19:53.607Z,99604.50
2022-09-01T06:22:20.825Z,99598.81
2022-09-01T06:24:54.520Z,99640.97
2022-09-01T06:27:23.513Z,99613.81
2022-09-01T06:29:53.682Z,99647.31
2022-09-01T06:32:20.719Z,99613.47
2022-09-01T06:34:51.557Z,99626.34
2022-09-01T06:37:22.915Z,99640.81
2022-09-01T06:39:50.732Z,99639.19
2022-09-01T06:42:17.926Z,99644.41
2022-09-01T06:44:45.967Z,99607.88
2022-09-01T06:47:13.051Z,99616.13
2022-09-01T06:49:41.146Z,99607.22
2022-09-01T06:52:08.981Z,99595.50
2022-09-01T06:54:36.489Z,99630.75
2022-09-01T06:59:52.472Z,99641.59
2022-09-01T07:02:20.019Z,99637.13
2022-09-01T07:04:52.207Z,99633.53
2022-09-01T07:10:18.469Z,99678.00
2022-09-01T07:18:27.511Z,99681.00
2022-09-01T07:21:38.796Z,99692.91
2022-09-01T07:23:46.675Z,99715.88
2022-09-01T07:26:27.091Z,99732.25
2022-09-01T07:29:01.681Z,99721.94
2022-09-01T07:34:46.545Z,99736.69
2022-09-01T07:45:30.778Z,99727.59
2022-09-01T07:48:03.394Z,99719.00
2022-09-01T07:50:41.438Z,99732.69
2022-09-01T07:53:32.496Z,99755.44
2022-09-01T07:56:07.335Z,99759.00
2022-09-01T07:58:33.912Z,99761.38
2022-09-01T08:01:02.625Z,99770.06
2022-09-01T08:03:30.201Z,99768.81
2022-09-01T08:06:06.127Z,99759.47
2022-09-01T08:08:35.825Z,99761.94
2022-09-01T08:11:04.616Z,99757.38
2022-09-01T08:13:40.710Z,99758.66
2022-09-01T08:16:16.977Z,99732.94
2022-09-01T08:18:49.304Z,99725.06
2022-09-01T08:21:18.418Z,99727.63
2022-09-01T08:23:45.237Z,99738.06
2022-09-01T08:26:14.733Z,99746.50
2022-09-01T08:28:45.880Z,99729.00
2022-09-01T08:31:17.944Z,99729.66
2022-09-01T08:33:49.180Z,99732.66
2022-09-01T08:36:20.214Z,99751.38
2022-09-01T08:38:51.287Z,99754.69
2022-09-01T08:41:28.710Z,99757.31
2022-09-01T08:44:22.373Z,99738.53
2022-09-01T08:46:52.883Z,99747.59
2022-09-01T08:49:26.239Z,99760.78
2022-09-01T08:52:07.951Z,99764.47
2022-09-01T08:54:34.418Z,99771.31
2022-09-01T08:57:05.871Z,99773.53
2022-09-01T08:59:32.591Z,99778.59
2022-09-01T09:01:59.979Z,99770.66
2022-09-01T09:04:51.204Z,99769.00
2022-09-01T09:07:29.639Z,99778.53
2022-09-01T09:10:05.658Z,99782.06
2022-09-01T09:12:51.441Z,99780.16
2022-09-01T09:15:33.711Z,99772.53
2022-09-01T09:18:20.159Z,99766.69
2022-09-01T09:21:14.070Z,99771.38
2022-09-01T09:23:45.502Z,99778.59
2022-09-01T09:26:16.677Z,99785.03
2022-09-01T09:28:50.055Z,99787.91
2022-09-01T09:31:36.602Z,99782.50
2022-09-01T09:34:04.117Z,99782.53
2022-09-01T09:36:36.169Z,99769.78
2022-09-01T09:39:14.209Z,99769.66
2022-09-01T09:41:41.918Z,99773.25
2022-09-01T09:44:11.568Z,99763.69
2022-09-01T09:46:43.732Z,99761.81
2022-09-01T09:49:35.921Z,99761.41
2022-09-01T09:52:03.258Z,99758.66
2022-09-01T09:54:34.662Z,99761.91
2022-09-01T09:57:13.658Z,99763.66
2022-09-01T10:00:03.292Z,99767.28
2022-09-01T10:02:39.053Z,99763.41
2022-09-01T10:05:30.163Z,99761.50
2022-09-01T10:07:57.410Z,99765.66
2022-09-01T10:10:34.665Z,99769.03
2022-09-01T10:13:02.367Z,99764.66
2022-09-01T10:15:32.232Z,99758.50
2022-09-01T10:18:29.041Z,99760.38
2022-09-01T10:21:02.913Z,99754.44
2022-09-01T10:23:33.345Z,99755.16
2022-09-01T10:26:09.794Z,99750.66
2022-09-01T10:28:50.005Z,99741.94
2022-09-01T10:31:17.991Z,99743.84
2022-09-01T10:33:45.557Z,99747.50
2022-09-01T10:36:14.363Z,99739.16
2022-09-01T10:38:46.352Z,99743.47
2022-09-01T10:41:59.659Z,99731.56
2022-09-01T10:44:56.241Z,99727.97
2022-09-01T10:47:29.431Z,99717.72
2022-09-01T10:49:59.129Z,99713.97
2022-09-01T10:52:41.382Z,99714.00
2022-09-01T10:55:27.272Z,99722.69
2022-09-01T10:59:30.386Z,99714.69
2022-09-01T11:03:56.200Z,99713.16
2022-09-01T11:06:42.193Z,99702.84
2022-09-01T11:09:26.391Z,99704.19
2022-09-01T11:12:16.498Z,99704.19
2022-09-01T11:15:06.861Z,99701.44
2022-09-01T11:17:37.987Z,99693.19
2022-09-01T11:20:22.323Z,99691.53
2022-09-01T11:22:59.953Z,99693.63
2022-09-01T11:25:39.845Z,99683.50
2022-09-01T11:28:06.799Z,99687.66
2022-09-01T11:31:01.016Z,99675.16
2022-09-01T11:33:53.439Z,99678.22
2022-09-01T11:36:32.287Z,99673.88
2022-09-01T11:39:30.203Z,99674.13
2022-09-01T11:42:14.546Z,99678.78
2022-09-01T11:44:59.807Z,99666.56
2022-09-01T11:47:34.287Z,99660.59
2022-09-01T11:50:04.668Z,99660.41
2022-09-01T11:52:36.183Z,99656.59
2022-09-01T11:55:05.780Z,99659.72
2022-09-01T11:57:35.285Z,99647.56
2022-09-01T12:00:07.657Z,99643.31
2022-09-01T12:02:36.927Z,99641.06
2022-09-01T12:05:24.848Z,99637.31
2022-09-01T12:07:51.628Z,99640.44
2022-09-01T12:10:29.956Z,99638.56
2022-09-01T12:13:15.731Z,99638.13
2022-09-01T12:16:07.095Z,99638.03
2022-09-01T12:18:47.384Z,99634.44
2022-09-01T12:21:38.283Z,99623.03
2022-09-01T12:24:23.319Z,99628.81
2022-09-01T12:26:54.295Z,99627.25
2022-09-01T12:29:23.237Z,99629.03
2022-09-01T12:31:52.558Z,99622.03
2022-09-01T12:34:50.022Z,99624.50
2022-09-01T12:37:16.535Z,99610.34
2022-09-01T12:39:46.312Z,99617.19
2022-09-01T12:42:27.495Z,99606.56
2022-09-01T12:44:58.592Z,99602.06
2022-09-01T12:47:34.745Z,99599.66
2022-09-01T12:50:06.162Z,99598.22
2022-09-01T12:52:35.594Z,99587.81
2022-09-01T12:55:03.721Z,99589.56
2022-09-01T12:57:34.460Z,99589.56
2022-09-01T13:00:21.171Z,99593.44
2022-09-01T13:02:49.742Z,99584.44
2022-09-01T13:05:41.548Z,99578.41
2022-09-01T13:08:14.749Z,99569.00
2022-09-01T13:10:44.985Z,99573.03
2022-09-01T13:13:12.945Z,99572.78
2022-09-01T13:15:45.396Z,99564.31
2022-09-01T13:18:12.177Z,99554.13
2022-09-01T13:20:38.695Z,99559.59
2022-09-01T13:23:05.345Z,99552.88
2022-09-01T13:25:31.916Z,99549.94
2022-09-01T13:28:00.381Z,99553.75
2022-09-01T13:30:28.569Z,99551.78
2022-09-01T13:35:42.760Z,99541.09
2022-09-01T13:38:09.809Z,99548.72
2022-09-01T13:40:36.742Z,99542.13
2022-09-01T13:43:06.364Z,99537.16
2022-09-01T13:45:33.709Z,99536.88
2022-09-01T13:48:17.018Z,99537.31
2022-09-01T13:53:37.042Z,99528.50
2022-09-01T13:56:04.063Z,99527.41
2022-09-01T13:58:30.929Z,99523.13
2022-09-01T14:00:59.529Z,99524.38
2022-09-01T14:03:26.265Z,99518.19
2022-09-01T14:05:54.074Z,99516.16
2022-09-01T14:08:22.861Z,99510.88
2022-09-01T14:10:51.963Z,99512.66
2022-09-01T14:13:23.816Z,99508.84
2022-09-01T14:15:53.389Z,99502.31
2022-09-01T14:18:21.747Z,99496.38
2022-09-01T14:20:51.214Z,99491.44
2022-09-01T14:23:19.018Z,99481.47
2022-09-01T14:25:48.812Z,99489.31
2022-09-01T14:28:16.635Z,99485.38
2022-09-01T14:30:47.511Z,99491.06
2022-09-01T14:33:14.219Z,99480.25
2022-09-01T14:35:43.732Z,99480.56
2022-09-01T14:38:11.741Z,99478.84
2022-09-01T14:40:39.537Z,99471.03
2022-09-01T14:43:09.837Z,99477.59
2022-09-01T14:45:39.628Z,99465.91
2022-09-01T14:48:09.691Z,99465.63
2022-09-01T14:50:41.304Z,99462.09
2022-09-01T14:53:08.949Z,99460.28
2022-09-01T14:55:35.753Z,99452.19
2022-09-01T14:58:02.706Z,99457.97
2022-09-01T15:00:31.496Z,99456.97
2022-09-01T15:02:58.565Z,99454.47
2022-09-01T15:05:25.331Z,99455.84
2022-09-01T15:07:53.333Z,99454.84
2022-09-01T15:10:25.191Z,99453.25
2022-09-01T15:12:53.984Z,99453.09
2022-09-01T15:15:21.603Z,99461.22
2022-09-01T15:17:48.434Z,99443.88
2022-09-01T15:20:33.827Z,99446.00
2022-09-01T15:23:01.267Z,99440.81
2022-09-01T15:25:28.197Z,99448.16
2022-09-01T15:27:54.837Z,99439.75
2022-09-01T15:30:21.883Z,99434.75
2022-09-01T15:32:51.302Z,99442.50
2022-09-01T15:35:19.273Z,99441.69
2022-09-01T15:37:48.037Z,99431.34
2022-09-01T15:40:15.330Z,99432.63
2022-09-01T15:42:43.003Z,99437.59
2022-09-01T15:45:13.383Z,99428.59
2022-09-01T15:47:44.922Z,99428.53
2022-09-01T15:50:18.334Z,99430.25
2022-09-01T15:52:51.015Z,99436.34
2022-09-01T15:55:20.267Z,99431.81
2022-09-01T15:57:47.141Z,99428.09
2022-09-01T16:00:15.330Z,99435.97
2022-09-01T16:02:42.510Z,99434.22
2022-09-01T16:05:10.444Z,99428.88
2022-09-01T16:07:36.995Z,99428.56
2022-09-01T16:10:06.253Z,99429.31
2022-09-01T16:12:35.734Z,99421.44
2022-09-01T16:15:05.533Z,99426.91
2022-09-01T16:18:05.860Z,99423.75
2022-09-01T16:21:11.925Z,99421.81
2022-09-01T16:23:46.104Z,99430.56
2022-09-01T16:26:13.166Z,99422.66
2022-09-01T16:28:45.032Z,99421.22
2022-09-01T16:31:21.109Z,99421.63
2022-09-01T16:33:56.052Z,99419.94
2022-09-01T16:36:49.183Z,99420.28
2022-09-01T16:39:54.605Z,99420.78
2022-09-01T16:42:36.073Z,99416.63
2022-09-01T16:45:44.356Z,99420.41
2022-09-01T16:48:25.647Z,99418.00
2022-09-01T16:51:01.246Z,99412.19
2022-09-01T16:53:48.594Z,99419.97
2022-09-01T16:56:32.029Z,99422.09
2022-09-01T16:59:11.995Z,99415.13
2022-09-01T17:01:52.408Z,99415.41
2022-09-01T17:04:36.790Z,99418.03
2022-09-01T17:07:08.405Z,99410.84
2022-09-01T17:09:41.210Z,99414.75
2022-09-01T17:12:37.268Z,99416.22
2022-09-01T17:15:17.831Z,99417.53
2022-09-01T17:18:23.031Z,99413.50
2022-09-01T17:20:58.018Z,99420.38
2022-09-01T17:23:28.961Z,99425.38
2022-09-01T17:26:01.599Z,99418.81
2022-09-01T17:28:43.973Z,99415.59
2022-09-01T17:31:22.107Z,99406.94
2022-09-01T17:34:07.646Z,99410.34
2022-09-01T17:36:48.036Z,99422.31
2022-09-01T17:39:18.175Z,99420.59
2022-09-01T17:42:02.860Z,99417.38
2022-09-01T17:44:35.786Z,99426.38
2022-09-01T17:47:11.961Z,99425.78
2022-09-01T17:49:53.778Z,99424.59
2022-09-01T17:53:10.356Z,99421.38
2022-09-01T17:55:40.025Z,99428.34
2022-09-01T17:58:21.359Z,99431.69
2022-09-01T18:01:26.371Z,99426.22
2022-09-01T18:04:14.801Z,99429.91
2022-09-01T18:07:38.260Z,99428.75
2022-09-01T18:10:08.470Z,99425.50
2022-09-01T18:12:37.689Z,99423.06
2022-09-01T18:15:10.932Z,99423.06
2022-09-01T18:17:45.569Z,99420.31
2022-09-01T18:20:26.256Z,99431.28
2022-09-01T18:23:05.584Z,99426.69
2022-09-01T18:25:40.613Z,99423.31
2022-09-01T18:28:07.640Z,99422.34
2022-09-01T18:30:59.557Z,99432.09
2022-09-01T18:33:32.967Z,99436.56
2022-09-01T18:36:17.836Z,99432.13
2022-09-01T18:38:55.238Z,99434.03
2022-09-01T18:41:21.713Z,99435.47
2022-09-01T18:43:54.096Z,99434.84
2022-09-01T18:46:35.874Z,99439.56
2022-09-01T18:49:09.331Z,99436.16
2022-09-01T18:51:51.887Z,99441.69
2022-09-01T18:54:27.181Z,99437.09
2022-09-01T18:57:06.170Z,99442.66
2022-09-01T18:59:52.151Z,99449.44
2022-09-01T19:02:27.535Z,99442.13
2022-09-01T19:04:59.780Z,99454.19
2022-09-01T19:07:45.090Z,99452.50
2022-09-01T19:10:24.234Z,99454.97
2022-09-01T19:12:56.886Z,99456.38
2022-09-01T19:16:13.667Z,99453.75
2022-09-01T19:18:48.558Z,99461.63
2022-09-01T19:21:27.822Z,99465.66
2022-09-01T19:24:10.920Z,99458.66
2022-09-01T19:26:47.877Z,99465.66
2022-09-01T19:29:24.226Z,99468.75
2022-09-01T19:31:57.700Z,99469.53
2022-09-01T19:34:32.498Z,99474.13
2022-09-01T19:37:02.003Z,99479.88
2022-09-01T19:39:36.078Z,99479.75
2022-09-01T19:42:20.426Z,99482.38
2022-09-01T19:45:24.903Z,99484.50
2022-09-01T19:48:11.133Z,99491.22
2022-09-01T19:50:44.578Z,99495.31
2022-09-01T19:53:40.329Z,99487.13
2022-09-01T19:56:10.095Z,99497.69
2022-09-01T19:58:48.778Z,99487.09
2022-09-01T20:01:21.540Z,99496.25
2022-09-01T20:03:57.856Z,99489.66
2022-09-01T20:06:33.690Z,99487.78
2022-09-01T20:09:14.523Z,99494.66
2022-09-01T20:11:47.727Z,99499.50
2022-09-01T20:14:48.021Z,99497.53
2022-09-01T20:17:22.951Z,99492.44
2022-09-01T20:19:57.192Z,99497.88
2022-09-01T20:22:31.138Z,99499.50
2022-09-01T20:25:09.779Z,99504.06
2022-09-01T20:27:51.135Z,99506.28
2022-09-01T20:30:27.505Z,99503.66
2022-09-01T20:33:10.690Z,99510.69
2022-09-01T20:36:04.068Z,99500.03
2022-09-01T20:38:55.473Z,99499.28
2022-09-01T20:41:43.301Z,99500.19
2022-09-01T20:44:27.545Z,99491.16
2022-09-01T20:46:54.278Z,99489.41
2022-09-01T20:49:22.326Z,99480.66
2022-09-01T20:52:01.134Z,99477.22
2022-09-01T20:54:50.162Z,99479.09
2022-09-01T20:57:35.204Z,99478.03
2022-09-01T21:00:18.582Z,99479.31
2022-09-01T21:03:06.046Z,99475.06
2022-09-01T21:05:55.206Z,99472.84
2022-09-01T21:08:43.262Z,99483.41
2022-09-01T21:11:15.970Z,99488.88
2022-09-01T21:13:49.134Z,99489.13
2022-09-01T21:16:26.602Z,99486.38
2022-09-01T21:19:05.446Z,99489.00
2022-09-01T21:21:38.422Z,99482.84
2022-09-01T21:24:05.615Z,99494.31
2022-09-01T21:26:36.434Z,99488.03
2022-09-01T21:29:18.579Z,99486.53
2022-09-01T21:31:46.924Z,99481.47
2022-09-01T21:34:16.849Z,99482.47
2022-09-01T21:36:43.718Z,99486.38
2022-09-01T21:39:10.304Z,99490.13
2022-09-01T21:41:39.186Z,99491.75
2022-09-01T21:44:06.192Z,99499.28
2022-09-01T21:46:32.956Z,99494.06
2022-09-01T21:48:59.850Z,99490.72
2022-09-01T21:51:26.849Z,99478.31
2022-09-01T21:53:53.389Z,99482.84
2022-09-01T21:56:20.043Z,99485.69
2022-09-01T21:58:52.544Z,99481.41
2022-09-01T22:01:19.106Z,99464.69
2022-09-01T22:03:45.705Z,99473.63
2022-09-01T22:06:12.847Z,99480.69
2022-09-01T22:08:39.640Z,99477.50
2022-09-01T22:11:10.126Z,99477.69
2022-09-01T22:13:36.888Z,99476.00
2022-09-01T22:16:03.780Z,99475.81
2022-09-01T22:18:30.641Z,99465.59
2022-09-01T22:21:09.671Z,99477.31
2022-09-01T22:23:37.850Z,99464.47
2022-09-01T22:26:05.399Z,99458.41
2022-09-01T22:28:32.455Z,99460.00
2022-09-01T22:30:59.759Z,99466.94
2022-09-01T22:33:26.415Z,99472.34
2022-09-01T22:35:56.560Z,99474.91
2022-09-01T22:38:23.712Z,99480.31
2022-09-01T22:40:59.552Z,99481.28
2022-09-01T22:43:27.720Z,99474.28
2022-09-01T22:45:55.600Z,99473.28
2022-09-01T22:48:24.888Z,99466.22
2022-09-01T22:50:52.528Z,99470.53
2022-09-01T22:53:21.525Z,99466.22
2022-09-01T22:55:50.651Z,99461.09
2022-09-01T22:58:18.416Z,99458.78
2022-09-01T23:00:48.807Z,99462.22
2022-09-01T23:03:16.663Z,99468.34
2022-09-01T23:05:44.454Z,99479.69
2022-09-01T23:08:11.786Z,99475.09
2022-09-01T23:10:39.277Z,99472.47
2022-09-01T23:13:06.245Z,99467.34
2022-09-01T23:15:33.729Z,99472.56
2022-09-01T23:18:00.354Z,99473.41
2022-09-01T23:20:27.710Z,99474.81
2022-09-01T23:22:54.343Z,99471.59
2022-09-01T23:25:21.144Z,99469.28
2022-09-01T23:27:47.806Z,99467.41
2022-09-01T23:30:15.462Z,99466.66
2022-09-01T23:32:42.414Z,99471.91
2022-09-01T23:35:09.725Z,99465.94
2022-09-01T23:37:36.424Z,99466.25
2022-09-01T23:40:04.828Z,99471.13
2022-09-01T23:42:31.410Z,99467.41
2022-09-01T23:44:57.950Z,99470.16
2022-09-01T23:47:24.515Z,99463.84
2022-09-01T23:49:51.068Z,99455.28
2022-09-01T23:52:17.638Z,99459.25
2022-09-01T23:54:44.242Z,99448.66
2022-09-01T23:57:11.840Z,99449.81
2022-09-01T23:59:38.476Z,99450.94
